sensor_id;sensor_type;location;lat;lon;timestamp;pressure;altitude;pressure_sealevel;temperature;humidity
50434;BME280;36361;38.954;-9.002;2023-02-19T00:00:53;101524.53;;;14.57;65.83
50434;BME280;36361;38.954;-9.002;2023-02-19T00:01:54;101528.09;;;14.58;66.72
50434;BME280;36361;38.954;-9.002;2023-02-19T00:02:55;101528.00;;;14.71;66.12
50434;BME280;36361;38.954;-9.002;2023-02-19T00:03:59;101537.81;;;14.54;65.69
50434;BME280;36361;38.954;-9.002;2023-02-19T00:05:00;101531.31;;;14.79;67.16
50434;BME280;36361;38.954;-9.002;2023-02-19T00:06:02;101530.75;;;14.96;64.28
50434;BME280;36361;38.954;-9.002;2023-02-19T00:07:02;101535.00;;;14.67;65.04
50434;BME280;36361;38.954;-9.002;2023-02-19T00:08:03;101527.00;;;14.90;64.20
50434;BME280;36361;38.954;-9.002;2023-02-19T00:09:11;101529.66;;;14.72;64.37
50434;BME280;36361;38.954;-9.002;2023-02-19T00:10:12;101524.16;;;14.78;66.72
50434;BME280;36361;38.954;-9.002;2023-02-19T00:11:15;101522.66;;;14.51;66.06
50434;BME280;36361;38.954;-9.002;2023-02-19T00:12:17;101527.53;;;14.49;66.75
50434;BME280;36361;38.954;-9.002;2023-02-19T00:13:18;101526.44;;;14.57;67.47
50434;BME280;36361;38.954;-9.002;2023-02-19T00:14:20;101519.44;;;14.61;66.37
50434;BME280;36361;38.954;-9.002;2023-02-19T00:15:21;101518.50;;;14.73;69.25
50434;BME280;36361;38.954;-9.002;2023-02-19T00:16:28;101518.44;;;14.55;66.24
50434;BME280;36361;38.954;-9.002;2023-02-19T00:17:30;101527.63;;;14.67;65.39
50434;BME280;36361;38.954;-9.002;2023-02-19T00:18:31;101522.94;;;14.74;65.58
50434;BME280;36361;38.954;-9.002;2023-02-19T00:19:35;101516.56;;;14.49;66.32
50434;BME280;36361;38.954;-9.002;2023-02-19T00:20:36;101522.34;;;14.66;66.01
50434;BME280;36361;38.954;-9.002;2023-02-19T00:21:36;101524.69;;;14.62;65.65
50434;BME280;36361;38.954;-9.002;2023-02-19T00:22:37;101524.66;;;14.69;69.37
50434;BME280;36361;38.954;-9.002;2023-02-19T00:23:38;101529.97;;;14.64;66.33
50434;BME280;36361;38.954;-9.002;2023-02-19T00:24:39;101521.03;;;14.75;65.81
50434;BME280;36361;38.954;-9.002;2023-02-19T00:25:39;101525.41;;;14.44;66.72
50434;BME280;36361;38.954;-9.002;2023-02-19T00:26:41;101522.41;;;14.21;68.69
50434;BME280;36361;38.954;-9.002;2023-02-19T00:27:42;101525.63;;;14.49;67.76
50434;BME280;36361;38.954;-9.002;2023-02-19T00:28:43;101522.88;;;14.49;67.42
50434;BME280;36361;38.954;-9.002;2023-02-19T00:29:44;101526.59;;;14.17;69.11
50434;BME280;36361;38.954;-9.002;2023-02-19T00:30:44;101521.59;;;14.52;67.84
50434;BME280;36361;38.954;-9.002;2023-02-19T00:31:46;101519.44;;;14.61;67.21
50434;BME280;36361;38.954;-9.002;2023-02-19T00:32:50;101517.94;;;14.65;67.78
50434;BME280;36361;38.954;-9.002;2023-02-19T00:33:53;101521.28;;;14.67;67.25
50434;BME280;36361;38.954;-9.002;2023-02-19T00:34:54;101516.31;;;14.57;66.75
50434;BME280;36361;38.954;-9.002;2023-02-19T00:36:01;101513.47;;;14.32;68.49
50434;BME280;36361;38.954;-9.002;2023-02-19T00:37:02;101514.56;;;14.63;67.09
50434;BME280;36361;38.954;-9.002;2023-02-19T00:38:03;101508.34;;;14.49;67.34
50434;BME280;36361;38.954;-9.002;2023-02-19T00:39:06;101513.78;;;14.56;68.24
50434;BME280;36361;38.954;-9.002;2023-02-19T00:40:07;101510.03;;;14.50;68.30
50434;BME280;36361;38.954;-9.002;2023-02-19T00:41:09;101511.53;;;14.46;68.17
50434;BME280;36361;38.954;-9.002;2023-02-19T00:42:22;101518.50;;;14.35;68.90
50434;BME280;36361;38.954;-9.002;2023-02-19T00:43:23;101509.66;;;14.40;68.92
50434;BME280;36361;38.954;-9.002;2023-02-19T00:44:23;101508.97;;;14.44;70.13
50434;BME280;36361;38.954;-9.002;2023-02-19T00:45:24;101506.22;;;14.51;71.37
50434;BME280;36361;38.954;-9.002;2023-02-19T00:47:27;101507.75;;;14.72;69.89
50434;BME280;36361;38.954;-9.002;2023-02-19T00:48:28;101507.59;;;14.67;66.93
50434;BME280;36361;38.954;-9.002;2023-02-19T00:49:29;101517.53;;;14.61;70.38
50434;BME280;36361;38.954;-9.002;2023-02-19T00:50:29;101503.34;;;14.46;67.78
50434;BME280;36361;38.954;-9.002;2023-02-19T00:51:33;101499.78;;;14.32;69.68
50434;BME280;36361;38.954;-9.002;2023-02-19T00:52:34;101499.16;;;14.37;68.79
50434;BME280;36361;38.954;-9.002;2023-02-19T00:53:35;101510.59;;;14.20;68.72
50434;BME280;36361;38.954;-9.002;2023-02-19T00:54:36;101509.03;;;14.00;70.24
50434;BME280;36361;38.954;-9.002;2023-02-19T00:55:37;101510.94;;;13.99;70.75
50434;BME280;36361;38.954;-9.002;2023-02-19T00:56:38;101504.44;;;13.87;71.21
50434;BME280;36361;38.954;-9.002;2023-02-19T00:57:38;101506.53;;;13.91;71.08
50434;BME280;36361;38.954;-9.002;2023-02-19T00:58:39;101505.97;;;13.76;71.59
50434;BME280;36361;38.954;-9.002;2023-02-19T00:59:40;101507.16;;;13.93;71.33
50434;BME280;36361;38.954;-9.002;2023-02-19T01:00:41;101508.16;;;14.06;70.65
50434;BME280;36361;38.954;-9.002;2023-02-19T01:01:44;101507.72;;;14.09;70.51
50434;BME280;36361;38.954;-9.002;2023-02-19T01:02:46;101506.16;;;13.81;71.40
50434;BME280;36361;38.954;-9.002;2023-02-19T01:03:48;101506.59;;;13.78;71.39
50434;BME280;36361;38.954;-9.002;2023-02-19T01:04:49;101506.19;;;13.75;72.56
50434;BME280;36361;38.954;-9.002;2023-02-19T01:05:51;101501.94;;;13.85;71.52
50434;BME280;36361;38.954;-9.002;2023-02-19T01:06:52;101506.34;;;13.86;71.05
50434;BME280;36361;38.954;-9.002;2023-02-19T01:07:53;101506.50;;;13.98;70.42
50434;BME280;36361;38.954;-9.002;2023-02-19T01:08:54;101505.66;;;13.98;70.01
50434;BME280;36361;38.954;-9.002;2023-02-19T01:09:55;101499.34;;;13.97;70.06
50434;BME280;36361;38.954;-9.002;2023-02-19T01:10:56;101489.94;;;14.24;69.00
50434;BME280;36361;38.954;-9.002;2023-02-19T01:11:57;101489.06;;;14.31;72.21
50434;BME280;36361;38.954;-9.002;2023-02-19T01:12:57;101492.38;;;14.39;67.28
50434;BME280;36361;38.954;-9.002;2023-02-19T01:13:59;101492.41;;;14.33;67.10
50434;BME280;36361;38.954;-9.002;2023-02-19T01:15:00;101493.22;;;14.46;66.86
50434;BME280;36361;38.954;-9.002;2023-02-19T01:16:06;101490.94;;;14.37;67.08
50434;BME280;36361;38.954;-9.002;2023-02-19T01:17:07;101493.09;;;14.28;67.38
50434;BME280;36361;38.954;-9.002;2023-02-19T01:18:08;101490.63;;;14.51;66.43
50434;BME280;36361;38.954;-9.002;2023-02-19T01:19:08;101488.97;;;14.50;66.25
50434;BME280;36361;38.954;-9.002;2023-02-19T01:20:09;101492.38;;;14.46;66.29
50434;BME280;36361;38.954;-9.002;2023-02-19T01:21:17;101488.97;;;14.50;66.10
50434;BME280;36361;38.954;-9.002;2023-02-19T01:22:20;101483.72;;;14.49;65.60
50434;BME280;36361;38.954;-9.002;2023-02-19T01:23:21;101489.38;;;14.54;65.72
50434;BME280;36361;38.954;-9.002;2023-02-19T01:24:22;101479.38;;;14.66;64.91
50434;BME280;36361;38.954;-9.002;2023-02-19T01:25:22;101488.75;;;14.77;64.56
50434;BME280;36361;38.954;-9.002;2023-02-19T01:26:26;101488.81;;;14.70;64.99
50434;BME280;36361;38.954;-9.002;2023-02-19T01:27:27;101476.13;;;14.76;64.50
50434;BME280;36361;38.954;-9.002;2023-02-19T01:28:28;101484.28;;;14.58;65.14
50434;BME280;36361;38.954;-9.002;2023-02-19T01:29:29;101477.91;;;14.64;65.07
50434;BME280;36361;38.954;-9.002;2023-02-19T01:30:29;101479.69;;;14.51;65.91
50434;BME280;36361;38.954;-9.002;2023-02-19T01:31:31;101479.69;;;14.51;66.07
50434;BME280;36361;38.954;-9.002;2023-02-19T01:32:32;101480.13;;;14.48;66.39
50434;BME280;36361;38.954;-9.002;2023-02-19T01:33:33;101480.63;;;14.32;66.39
50434;BME280;36361;38.954;-9.002;2023-02-19T01:34:34;101481.88;;;14.36;66.37
50434;BME280;36361;38.954;-9.002;2023-02-19T01:35:37;101468.34;;;14.41;67.21
50434;BME280;36361;38.954;-9.002;2023-02-19T01:36:38;101476.78;;;14.40;66.12
50434;BME280;36361;38.954;-9.002;2023-02-19T01:37:41;101474.66;;;14.48;66.02
50434;BME280;36361;38.954;-9.002;2023-02-19T01:38:42;101474.69;;;14.35;66.45
50434;BME280;36361;38.954;-9.002;2023-02-19T01:39:43;101468.38;;;14.35;66.84
50434;BME280;36361;38.954;-9.002;2023-02-19T01:40:44;101471.69;;;14.50;66.14
50434;BME280;36361;38.954;-9.002;2023-02-19T01:41:44;101470.28;;;14.34;68.34
50434;BME280;36361;38.954;-9.002;2023-02-19T01:42:45;101469.63;;;14.39;67.37
50434;BME280;36361;38.954;-9.002;2023-02-19T01:46:15;101457.59;;;14.46;66.22
50434;BME280;36361;38.954;-9.002;2023-02-19T01:47:17;101461.47;;;14.32;67.62
50434;BME280;36361;38.954;-9.002;2023-02-19T01:48:31;101457.38;;;14.41;66.79
50434;BME280;36361;38.954;-9.002;2023-02-19T01:49:43;101468.13;;;14.43;66.15
50434;BME280;36361;38.954;-9.002;2023-02-19T01:50:55;101458.59;;;14.52;68.45
50434;BME280;36361;38.954;-9.002;2023-02-19T01:52:00;101456.16;;;14.69;65.70
50434;BME280;36361;38.954;-9.002;2023-02-19T01:53:05;101462.75;;;14.61;65.34
50434;BME280;36361;38.954;-9.002;2023-02-19T01:54:08;101450.56;;;14.57;68.69
50434;BME280;36361;38.954;-9.002;2023-02-19T01:55:12;101459.44;;;14.52;66.81
50434;BME280;36361;38.954;-9.002;2023-02-19T01:56:15;101455.22;;;14.57;65.60
50434;BME280;36361;38.954;-9.002;2023-02-19T01:57:20;101458.56;;;14.59;67.37
50434;BME280;36361;38.954;-9.002;2023-02-19T01:58:23;101454.28;;;14.63;65.51
50434;BME280;36361;38.954;-9.002;2023-02-19T01:59:25;101451.56;;;14.63;65.08
50434;BME280;36361;38.954;-9.002;2023-02-19T02:00:26;101450.69;;;14.37;66.49
50434;BME280;36361;38.954;-9.002;2023-02-19T02:01:27;101451.47;;;14.44;65.90
50434;BME280;36361;38.954;-9.002;2023-02-19T02:02:28;101457.44;;;14.35;66.36
50434;BME280;36361;38.954;-9.002;2023-02-19T02:03:29;101450.16;;;14.54;65.93
50434;BME280;36361;38.954;-9.002;2023-02-19T02:04:31;101446.09;;;14.31;67.22
50434;BME280;36361;38.954;-9.002;2023-02-19T02:05:58;101451.69;;;14.49;66.01
50434;BME280;36361;38.954;-9.002;2023-02-19T02:07:03;101447.50;;;14.40;66.44
50434;BME280;36361;38.954;-9.002;2023-02-19T02:08:28;101452.28;;;14.51;65.56
50434;BME280;36361;38.954;-9.002;2023-02-19T02:09:47;101451.47;;;14.44;65.90
50434;BME280;36361;38.954;-9.002;2023-02-19T02:11:07;101452.84;;;14.29;67.00
50434;BME280;36361;38.954;-9.002;2023-02-19T02:12:08;101453.13;;;14.52;65.72
50434;BME280;36361;38.954;-9.002;2023-02-19T02:13:08;101452.63;;;14.30;66.68
50434;BME280;36361;38.954;-9.002;2023-02-19T02:14:09;101448.38;;;14.03;67.67
50434;BME280;36361;38.954;-9.002;2023-02-19T02:15:10;101447.41;;;13.90;69.14
50434;BME280;36361;38.954;-9.002;2023-02-19T02:16:26;101450.91;;;14.04;68.96
50434;BME280;36361;38.954;-9.002;2023-02-19T02:18:07;101446.72;;;13.95;68.91
50434;BME280;36361;38.954;-9.002;2023-02-19T02:23:37;101445.44;;;13.98;68.72
50434;BME280;36361;38.954;-9.002;2023-02-19T02:30:42;101451.50;;;13.68;70.47
50434;BME280;36361;38.954;-9.002;2023-02-19T02:31:52;101453.84;;;13.64;71.09
50434;BME280;36361;38.954;-9.002;2023-02-19T02:34:03;101448.38;;;14.03;68.93
50434;BME280;36361;38.954;-9.002;2023-02-19T02:35:09;101452.50;;;14.18;68.01
50434;BME280;36361;38.954;-9.002;2023-02-19T02:36:20;101454.81;;;14.15;68.68
50434;BME280;36361;38.954;-9.002;2023-02-19T02:37:23;101456.09;;;14.19;67.86
50434;BME280;36361;38.954;-9.002;2023-02-19T02:38:29;101450.16;;;13.90;68.70
50434;BME280;36361;38.954;-9.002;2023-02-19T02:39:31;101448.63;;;13.94;69.79
50434;BME280;36361;38.954;-9.002;2023-02-19T02:40:32;101453.00;;;14.09;68.37
50434;BME280;36361;38.954;-9.002;2023-02-19T02:41:34;101451.13;;;14.03;69.29
50434;BME280;36361;38.954;-9.002;2023-02-19T02:42:42;101450.66;;;14.06;68.61
50434;BME280;36361;38.954;-9.002;2023-02-19T02:43:46;101455.53;;;14.04;69.15
50434;BME280;36361;38.954;-9.002;2023-02-19T02:44:48;101443.03;;;14.14;68.96
50434;BME280;36361;38.954;-9.002;2023-02-19T02:46:21;101442.88;;;14.09;68.86
50434;BME280;36361;38.954;-9.002;2023-02-19T02:47:25;101447.59;;;14.27;68.76
50434;BME280;36361;38.954;-9.002;2023-02-19T02:49:42;101444.88;;;14.27;67.13
50434;BME280;36361;38.954;-9.002;2023-02-19T02:51:25;101436.97;;;14.06;68.18
50434;BME280;36361;38.954;-9.002;2023-02-19T02:52:35;101440.72;;;14.18;72.20
50434;BME280;36361;38.954;-9.002;2023-02-19T02:54:10;101450.50;;;14.01;69.92
50434;BME280;36361;38.954;-9.002;2023-02-19T02:55:36;101447.66;;;13.82;68.92
50434;BME280;36361;38.954;-9.002;2023-02-19T02:56:38;101449.69;;;13.93;69.42
50434;BME280;36361;38.954;-9.002;2023-02-19T02:57:41;101442.34;;;13.87;69.31
50434;BME280;36361;38.954;-9.002;2023-02-19T02:58:42;101436.25;;;13.92;68.85
50434;BME280;36361;38.954;-9.002;2023-02-19T02:59:45;101442.72;;;13.98;69.76
50434;BME280;36361;38.954;-9.002;2023-02-19T03:00:55;101439.81;;;13.92;68.52
50434;BME280;36361;38.954;-9.002;2023-02-19T03:02:23;101443.13;;;14.01;69.27
50434;BME280;36361;38.954;-9.002;2023-02-19T03:03:26;101438.72;;;14.00;68.76
50434;BME280;36361;38.954;-9.002;2023-02-19T03:04:52;101436.00;;;13.93;68.50
50434;BME280;36361;38.954;-9.002;2023-02-19T03:06:16;101434.88;;;14.08;68.13
50434;BME280;36361;38.954;-9.002;2023-02-19T03:07:17;101442.22;;;14.07;67.84
50434;BME280;36361;38.954;-9.002;2023-02-19T03:08:28;101428.94;;;14.17;67.58
50434;BME280;36361;38.954;-9.002;2023-02-19T03:09:35;101436.91;;;14.19;67.33
50434;BME280;36361;38.954;-9.002;2023-02-19T03:10:44;101430.28;;;14.02;67.99
50434;BME280;36361;38.954;-9.002;2023-02-19T03:11:49;101427.56;;;13.57;70.21
50434;BME280;36361;38.954;-9.002;2023-02-19T03:13:32;101423.88;;;13.83;69.17
50434;BME280;36361;38.954;-9.002;2023-02-19T03:14:55;101424.09;;;13.81;69.78
50434;BME280;36361;38.954;-9.002;2023-02-19T03:16:19;101425.28;;;13.92;69.06
50434;BME280;36361;38.954;-9.002;2023-02-19T03:17:55;101418.63;;;13.81;69.79
50434;BME280;36361;38.954;-9.002;2023-02-19T03:19:19;101417.72;;;13.87;68.95
50434;BME280;36361;38.954;-9.002;2023-02-19T03:20:23;101412.13;;;13.76;70.14
50434;BME280;36361;38.954;-9.002;2023-02-19T03:21:25;101417.69;;;13.94;68.96
50434;BME280;36361;38.954;-9.002;2023-02-19T03:22:33;101416.19;;;13.98;68.54
50434;BME280;36361;38.954;-9.002;2023-02-19T03:23:36;101410.78;;;13.91;68.72
50434;BME280;36361;38.954;-9.002;2023-02-19T03:25:10;101413.88;;;14.02;68.56
50434;BME280;36361;38.954;-9.002;2023-02-19T03:26:32;101412.44;;;14.24;66.27
50434;BME280;36361;38.954;-9.002;2023-02-19T03:27:35;101411.84;;;13.90;67.56
50434;BME280;36361;38.954;-9.002;2023-02-19T03:28:39;101416.84;;;13.93;68.13
50434;BME280;36361;38.954;-9.002;2023-02-19T03:30:07;101406.88;;;13.74;68.68
50434;BME280;36361;38.954;-9.002;2023-02-19T03:31:13;101415.59;;;13.89;68.43
50434;BME280;36361;38.954;-9.002;2023-02-19T03:32:59;101404.94;;;13.81;69.47
50434;BME280;36361;38.954;-9.002;2023-02-19T03:34:02;101402.56;;;13.91;69.28
50434;BME280;36361;38.954;-9.002;2023-02-19T03:35:08;101408.72;;;13.80;69.52
50434;BME280;36361;38.954;-9.002;2023-02-19T03:36:12;101411.25;;;13.82;69.89
50434;BME280;36361;38.954;-9.002;2023-02-19T03:37:26;101401.66;;;13.66;69.94
50434;BME280;36361;38.954;-9.002;2023-02-19T03:38:42;101403.44;;;13.85;69.53
50434;BME280;36361;38.954;-9.002;2023-02-19T03:39:44;101402.72;;;13.65;70.10
50434;BME280;36361;38.954;-9.002;2023-02-19T03:42:11;101402.50;;;13.60;70.38
50434;BME280;36361;38.954;-9.002;2023-02-19T03:43:18;101403.75;;;13.64;70.14
50434;BME280;36361;38.954;-9.002;2023-02-19T03:47:57;101400.94;;;13.39;71.89
50434;BME280;36361;38.954;-9.002;2023-02-19T03:49:20;101392.66;;;13.52;71.89
50434;BME280;36361;38.954;-9.002;2023-02-19T03:50:28;101395.50;;;13.71;70.61
50434;BME280;36361;38.954;-9.002;2023-02-19T03:52:41;101401.56;;;13.79;70.94
50434;BME280;36361;38.954;-9.002;2023-02-19T03:54:12;101404.72;;;13.83;70.83
50434;BME280;36361;38.954;-9.002;2023-02-19T03:55:27;101397.50;;;13.88;70.08
50434;BME280;36361;38.954;-9.002;2023-02-19T03:57:48;101392.25;;;13.49;71.53
50434;BME280;36361;38.954;-9.002;2023-02-19T03:58:55;101388.66;;;13.55;72.13
50434;BME280;36361;38.954;-9.002;2023-02-19T04:00:10;101392.66;;;13.52;71.17
50434;BME280;36361;38.954;-9.002;2023-02-19T04:01:20;101391.66;;;13.47;70.91
50434;BME280;36361;38.954;-9.002;2023-02-19T04:04:15;101397.59;;;13.30;71.79
50434;BME280;36361;38.954;-9.002;2023-02-19T04:05:26;101401.75;;;13.40;71.35
50434;BME280;36361;38.954;-9.002;2023-02-19T04:06:30;101399.09;;;13.26;71.53
50434;BME280;36361;38.954;-9.002;2023-02-19T04:07:34;101399.03;;;13.40;72.86
50434;BME280;36361;38.954;-9.002;2023-02-19T04:08:44;101399.50;;;13.23;73.75
50434;BME280;36361;38.954;-9.002;2023-02-19T04:09:49;101411.47;;;13.35;73.64
50434;BME280;36361;38.954;-9.002;2023-02-19T04:10:53;101408.31;;;13.32;73.38
50434;BME280;36361;38.954;-9.002;2023-02-19T04:11:58;101405.41;;;13.27;73.03
50434;BME280;36361;38.954;-9.002;2023-02-19T04:13:09;101408.75;;;13.22;72.80
50434;BME280;36361;38.954;-9.002;2023-02-19T04:14:45;101409.59;;;13.29;77.58
50434;BME280;36361;38.954;-9.002;2023-02-19T04:15:47;101401.31;;;13.43;72.22
50434;BME280;36361;38.954;-9.002;2023-02-19T04:16:53;101397.72;;;13.49;75.79
50434;BME280;36361;38.954;-9.002;2023-02-19T04:18:04;101403.44;;;13.34;73.28
50434;BME280;36361;38.954;-9.002;2023-02-19T04:19:10;101396.28;;;13.40;74.26
50434;BME280;36361;38.954;-9.002;2023-02-19T04:20:13;101402.38;;;13.42;74.19
50434;BME280;36361;38.954;-9.002;2023-02-19T04:21:15;101405.59;;;13.19;74.19
50434;BME280;36361;38.954;-9.002;2023-02-19T04:22:16;101407.66;;;13.36;75.64
50434;BME280;36361;38.954;-9.002;2023-02-19T04:23:20;101403.03;;;13.37;73.61
50434;BME280;36361;38.954;-9.002;2023-02-19T04:24:30;101396.69;;;13.43;72.79
50434;BME280;36361;38.954;-9.002;2023-02-19T04:25:41;101405.19;;;13.22;73.36
50434;BME280;36361;38.954;-9.002;2023-02-19T04:26:44;101409.59;;;13.29;73.50
50434;BME280;36361;38.954;-9.002;2023-02-19T04:27:44;101407.66;;;13.36;73.73
50434;BME280;36361;38.954;-9.002;2023-02-19T04:28:46;101412.00;;;13.51;72.71
50434;BME280;36361;38.954;-9.002;2023-02-19T04:29:46;101404.50;;;13.40;72.94
50434;BME280;36361;38.954;-9.002;2023-02-19T04:30:47;101396.97;;;13.15;73.16
50434;BME280;36361;38.954;-9.002;2023-02-19T04:31:48;101409.22;;;12.99;74.63
50434;BME280;36361;38.954;-9.002;2023-02-19T04:32:49;101408.75;;;13.22;73.88
50434;BME280;36361;38.954;-9.002;2023-02-19T04:33:49;101400.22;;;13.57;71.97
50434;BME280;36361;38.954;-9.002;2023-02-19T04:34:50;101408.47;;;13.44;72.28
50434;BME280;36361;38.954;-9.002;2023-02-19T04:35:51;101412.09;;;13.24;74.41
50434;BME280;36361;38.954;-9.002;2023-02-19T04:36:51;101404.09;;;13.16;73.07
50434;BME280;36361;38.954;-9.002;2023-02-19T04:37:52;101408.94;;;13.14;72.69
50434;BME280;36361;38.954;-9.002;2023-02-19T04:38:53;101412.78;;;13.20;72.89
50434;BME280;36361;38.954;-9.002;2023-02-19T04:39:53;101410.63;;;13.28;72.48
50434;BME280;36361;38.954;-9.002;2023-02-19T04:40:54;101411.28;;;13.17;71.98
50434;BME280;36361;38.954;-9.002;2023-02-19T04:41:55;101409.72;;;13.48;76.32
50434;BME280;36361;38.954;-9.002;2023-02-19T04:42:56;101402.34;;;13.55;69.84
50434;BME280;36361;38.954;-9.002;2023-02-19T04:43:57;101411.19;;;13.50;70.31
50434;BME280;36361;38.954;-9.002;2023-02-19T04:44:57;101407.38;;;13.58;70.03
50434;BME280;36361;38.954;-9.002;2023-02-19T04:45:59;101409.06;;;13.52;70.45
50434;BME280;36361;38.954;-9.002;2023-02-19T04:47:00;101408.88;;;13.54;70.63
50434;BME280;36361;38.954;-9.002;2023-02-19T04:48:01;101409.09;;;13.46;71.18
50434;BME280;36361;38.954;-9.002;2023-02-19T04:49:02;101407.00;;;13.48;71.60
50434;BME280;36361;38.954;-9.002;2023-02-19T04:50:03;101412.47;;;13.41;71.54
50434;BME280;36361;38.954;-9.002;2023-02-19T04:51:05;101411.69;;;13.27;72.20
50434;BME280;36361;38.954;-9.002;2023-02-19T04:52:06;101410.41;;;13.36;71.46
50434;BME280;36361;38.954;-9.002;2023-02-19T04:53:07;101418.44;;;13.05;71.51
50434;BME280;36361;38.954;-9.002;2023-02-19T04:54:08;101409.84;;;12.95;72.13
50434;BME280;36361;38.954;-9.002;2023-02-19T04:55:09;101419.72;;;12.96;72.04
50434;BME280;36361;38.954;-9.002;2023-02-19T04:56:12;101417.81;;;13.03;72.27
50434;BME280;36361;38.954;-9.002;2023-02-19T04:57:13;101416.31;;;13.07;71.80
50434;BME280;36361;38.954;-9.002;2023-02-19T04:58:13;101413.81;;;13.12;71.95
50434;BME280;36361;38.954;-9.002;2023-02-19T04:59:14;101417.41;;;12.93;72.20
50434;BME280;36361;38.954;-9.002;2023-02-19T05:00:15;101410.06;;;13.00;71.71
50434;BME280;36361;38.954;-9.002;2023-02-19T05:01:17;101421.41;;;12.97;71.90
50434;BME280;36361;38.954;-9.002;2023-02-19T05:02:18;101414.06;;;12.91;71.56
50434;BME280;36361;38.954;-9.002;2023-02-19T05:03:19;101411.75;;;13.01;71.04
50434;BME280;36361;38.954;-9.002;2023-02-19T05:04:19;101418.88;;;13.02;71.06
50434;BME280;36361;38.954;-9.002;2023-02-19T05:05:20;101412.97;;;12.98;71.53
50434;BME280;36361;38.954;-9.002;2023-02-19T05:06:21;101412.97;;;13.05;71.51
50434;BME280;36361;38.954;-9.002;2023-02-19T05:07:21;101413.41;;;13.02;71.44
50434;BME280;36361;38.954;-9.002;2023-02-19T05:08:22;101422.19;;;13.24;70.34
50434;BME280;36361;38.954;-9.002;2023-02-19T05:09:23;101410.44;;;13.10;70.70
50434;BME280;36361;38.954;-9.002;2023-02-19T05:10:23;101423.31;;;12.90;71.36
50434;BME280;36361;38.954;-9.002;2023-02-19T05:11:24;101414.25;;;12.96;71.48
50434;BME280;36361;38.954;-9.002;2023-02-19T05:12:25;101415.28;;;13.21;70.71
50434;BME280;36361;38.954;-9.002;2023-02-19T05:13:27;101410.41;;;13.36;68.81
50434;BME280;36361;38.954;-9.002;2023-02-19T05:14:27;101417.56;;;13.37;69.45
50434;BME280;36361;38.954;-9.002;2023-02-19T05:15:28;101415.88;;;13.36;68.45
50434;BME280;36361;38.954;-9.002;2023-02-19T05:16:32;101418.53;;;13.50;67.46
50434;BME280;36361;38.954;-9.002;2023-02-19T05:17:35;101407.38;;;13.51;68.00
50434;BME280;36361;38.954;-9.002;2023-02-19T05:18:37;101420.84;;;13.53;67.38
50434;BME280;36361;38.954;-9.002;2023-02-19T05:19:37;101421.88;;;13.52;67.49
50434;BME280;36361;38.954;-9.002;2023-02-19T05:20:38;101416.44;;;13.52;68.50
50434;BME280;36361;38.954;-9.002;2023-02-19T05:21:39;101418.53;;;13.56;67.05
50434;BME280;36361;38.954;-9.002;2023-02-19T05:22:40;101418.50;;;13.63;66.81
50434;BME280;36361;38.954;-9.002;2023-02-19T05:23:41;101420.84;;;13.53;67.39
50434;BME280;36361;38.954;-9.002;2023-02-19T05:24:42;101425.50;;;13.46;68.67
50434;BME280;36361;38.954;-9.002;2023-02-19T05:25:43;101424.06;;;13.36;69.67
50434;BME280;36361;38.954;-9.002;2023-02-19T05:26:44;101429.69;;;13.48;68.40
50434;BME280;36361;38.954;-9.002;2023-02-19T05:27:45;101425.06;;;13.49;67.74
50434;BME280;36361;38.954;-9.002;2023-02-19T05:28:47;101427.22;;;13.33;68.11
50434;BME280;36361;38.954;-9.002;2023-02-19T05:29:48;101421.72;;;13.47;67.30
50434;BME280;36361;38.954;-9.002;2023-02-19T05:30:50;101426.44;;;13.26;68.00
50434;BME280;36361;38.954;-9.002;2023-02-19T05:31:51;101429.38;;;13.05;68.95
50434;BME280;36361;38.954;-9.002;2023-02-19T05:32:52;101428.75;;;13.09;68.78
50434;BME280;36361;38.954;-9.002;2023-02-19T05:33:56;101437.38;;;13.20;67.77
50434;BME280;36361;38.954;-9.002;2023-02-19T05:34:56;101431.88;;;13.13;67.72
50434;BME280;36361;38.954;-9.002;2023-02-19T05:35:57;101426.84;;;13.23;67.64
50434;BME280;36361;38.954;-9.002;2023-02-19T05:36:58;101424.31;;;13.28;67.28
50434;BME280;36361;38.954;-9.002;2023-02-19T05:37:59;101424.69;;;13.45;66.05
50434;BME280;36361;38.954;-9.002;2023-02-19T05:38:59;101430.09;;;13.52;65.21
50434;BME280;36361;38.954;-9.002;2023-02-19T05:40:00;101430.16;;;13.38;66.00
50434;BME280;36361;38.954;-9.002;2023-02-19T05:42:13;101436.06;;;13.35;66.02
50434;BME280;36361;38.954;-9.002;2023-02-19T05:43:14;101434.94;;;13.50;65.76
50434;BME280;36361;38.954;-9.002;2023-02-19T05:44:15;101426.38;;;13.40;65.86
50434;BME280;36361;38.954;-9.002;2023-02-19T05:45:16;101430.53;;;13.49;65.48
50434;BME280;36361;38.954;-9.002;2023-02-19T05:46:19;101430.53;;;13.49;65.27
50434;BME280;36361;38.954;-9.002;2023-02-19T05:47:20;101423.88;;;13.25;66.06
50434;BME280;36361;38.954;-9.002;2023-02-19T05:48:21;101429.13;;;13.33;66.80
50434;BME280;36361;38.954;-9.002;2023-02-19T05:49:21;101432.44;;;13.42;65.86
50434;BME280;36361;38.954;-9.002;2023-02-19T05:50:22;101435.16;;;13.55;65.54
50434;BME280;36361;38.954;-9.002;2023-02-19T05:51:24;101432.19;;;13.56;64.25
50434;BME280;36361;38.954;-9.002;2023-02-19T05:52:25;101426.25;;;13.66;64.29
50434;BME280;36361;38.954;-9.002;2023-02-19T05:53:26;101427.81;;;13.42;65.21
50434;BME280;36361;38.954;-9.002;2023-02-19T05:54:28;101433.03;;;13.57;66.20
50434;BME280;36361;38.954;-9.002;2023-02-19T05:55:32;101421.47;;;13.55;64.91
50434;BME280;36361;38.954;-9.002;2023-02-19T05:56:36;101436.00;;;13.55;64.58
50434;BME280;36361;38.954;-9.002;2023-02-19T05:57:41;101429.69;;;13.55;67.61
50434;BME280;36361;38.954;-9.002;2023-02-19T05:58:42;101433.13;;;13.37;66.38
50434;BME280;36361;38.954;-9.002;2023-02-19T05:59:43;101433.56;;;13.27;66.47
50434;BME280;36361;38.954;-9.002;2023-02-19T06:00:44;101434.38;;;13.15;66.66
50434;BME280;36361;38.954;-9.002;2023-02-19T06:01:45;101435.19;;;13.42;66.97